createdAt,value
2022-12-18T00:01:37.018Z,44.65
2022-12-18T00:04:05.830Z,41.25
2022-12-18T00:06:33.525Z,40.28
2022-12-18T00:09:01.408Z,36.42
2022-12-18T00:13:57.388Z,44.80
2022-12-18T00:16:25.821Z,37.53
2022-12-18T00:18:55.106Z,32.08
2022-12-18T00:21:22.009Z,34.88
2022-12-18T00:23:49.838Z,48.20
2022-12-18T00:28:45.495Z,38.83
2022-12-18T00:31:17.844Z,49.15
2022-12-18T00:33:44.752Z,44.63
2022-12-18T00:36:14.554Z,43.55
2022-12-18T00:38:41.921Z,42.13
2022-12-18T00:41:11.437Z,48.47
2022-12-18T00:43:39.486Z,48.13
2022-12-18T00:46:06.733Z,51.20
2022-12-18T00:48:33.723Z,53.93
2022-12-18T00:51:00.290Z,51.08
2022-12-18T00:53:26.812Z,41.65
2022-12-18T00:55:53.307Z,44.45
2022-12-18T00:58:19.819Z,40.55
2022-12-18T01:00:46.506Z,47.65
2022-12-18T01:03:15.747Z,46.10
2022-12-18T01:05:44.163Z,56.10
2022-12-18T01:08:11.835Z,46.28
2022-12-18T01:10:41.867Z,52.85
2022-12-18T01:13:08.800Z,52.72
2022-12-18T01:15:35.797Z,55.30
2022-12-18T01:18:02.388Z,43.92
2022-12-18T01:20:29.090Z,40.90
2022-12-18T01:22:55.622Z,40.10
2022-12-18T01:25:22.118Z,45.08
2022-12-18T01:27:51.000Z,59.33
2022-12-18T01:30:17.667Z,50.85
2022-12-18T01:32:45.589Z,51.13
2022-12-18T01:35:12.093Z,41.83
2022-12-18T01:37:38.704Z,52.42
2022-12-18T01:40:06.019Z,49.10
2022-12-18T01:42:32.506Z,44.75
2022-12-18T01:45:12.430Z,43.67
2022-12-18T01:47:51.669Z,46.40
2022-12-18T01:50:25.681Z,44.25
2022-12-18T01:53:00.857Z,42.78
2022-12-18T01:55:31.785Z,41.10
2022-12-18T01:58:00.230Z,40.28
2022-12-18T02:00:27.886Z,50.40
2022-12-18T02:02:54.920Z,41.15
2022-12-18T02:05:35.093Z,45.25
2022-12-18T02:08:23.009Z,35.92
2022-12-18T02:11:08.269Z,51.38
2022-12-18T02:14:09.548Z,45.22
2022-12-18T02:16:57.230Z,39.20
2022-12-18T02:19:26.833Z,42.85
2022-12-18T02:22:25.843Z,43.45
2022-12-18T02:25:06.102Z,41.67
2022-12-18T02:27:34.985Z,50.28
2022-12-18T02:30:03.173Z,59.75
2022-12-18T02:32:34.762Z,52.17
2022-12-18T02:35:03.518Z,46.78
2022-12-18T02:37:32.270Z,51.25
2022-12-18T02:40:04.294Z,43.20
2022-12-18T02:42:33.805Z,46.70
2022-12-18T02:45:02.084Z,38.65
2022-12-18T02:47:33.675Z,41.22
2022-12-18T02:50:11.653Z,41.55
2022-12-18T02:53:05.811Z,40.67
2022-12-18T02:55:45.367Z,38.78
2022-12-18T02:59:02.402Z,43.80
2022-12-18T03:01:56.350Z,39.75
2022-12-18T03:04:31.595Z,40.30
2022-12-18T03:07:03.894Z,43.45
2022-12-18T03:09:39.316Z,47.95
2022-12-18T03:12:32.628Z,43.40
2022-12-18T03:15:04.762Z,35.22
2022-12-18T03:17:34.227Z,44.35
2022-12-18T03:20:09.594Z,43.08
2022-12-18T03:22:39.230Z,39.78
2022-12-18T03:25:11.571Z,34.05
2022-12-18T03:27:43.261Z,32.85
2022-12-18T03:30:14.137Z,39.92
2022-12-18T03:32:48.557Z,40.60
2022-12-18T03:35:24.242Z,44.75
2022-12-18T03:37:51.120Z,45.00
2022-12-18T03:40:19.271Z,34.80
2022-12-18T03:42:51.806Z,42.70
2022-12-18T03:45:33.554Z,48.33
2022-12-18T03:48:11.849Z,31.58
2022-12-18T03:50:56.444Z,40.33
2022-12-18T03:53:46.310Z,47.65
2022-12-18T03:56:15.905Z,41.95
2022-12-18T03:58:46.584Z,40.35
2022-12-18T04:01:20.939Z,51.00
2022-12-18T04:03:51.072Z,36.45
2022-12-18T04:06:20.250Z,39.88
2022-12-18T04:08:48.182Z,40.17
2022-12-18T04:11:18.097Z,53.25
2022-12-18T04:13:46.268Z,48.22
2022-12-18T04:16:21.916Z,36.88
2022-12-18T04:18:52.211Z,38.70
2022-12-18T04:21:20.367Z,56.00
2022-12-18T04:23:48.288Z,42.45
2022-12-18T04:26:15.004Z,44.13
2022-12-18T04:29:00.395Z,32.90
2022-12-18T04:31:29.682Z,39.10
2022-12-18T04:33:56.861Z,34.58
2022-12-18T04:36:23.817Z,42.30
2022-12-18T04:38:50.321Z,42.83
2022-12-18T04:41:17.655Z,44.08
2022-12-18T04:43:47.264Z,37.83
2022-12-18T04:46:14.254Z,35.08
2022-12-18T04:48:41.506Z,34.35
2022-12-18T04:51:08.547Z,39.40
2022-12-18T04:53:35.599Z,52.00
2022-12-18T04:56:09.887Z,32.15
2022-12-18T04:58:37.675Z,46.42
2022-12-18T05:03:31.844Z,38.57
2022-12-18T05:06:01.101Z,36.72
2022-12-18T05:08:27.665Z,38.17
2022-12-18T05:11:00.860Z,41.97
2022-12-18T05:13:28.325Z,48.03
2022-12-18T05:15:55.594Z,40.03
2022-12-18T05:18:23.988Z,38.78
2022-12-18T05:20:52.220Z,35.50
2022-12-18T05:23:20.358Z,41.83
2022-12-18T05:28:22.261Z,35.20
2022-12-18T05:33:23.531Z,30.48
2022-12-18T05:36:00.986Z,41.63
2022-12-18T05:38:28.784Z,36.20
2022-12-18T05:40:56.381Z,33.03
2022-12-18T05:43:24.045Z,37.40
2022-12-18T05:45:51.101Z,39.03
2022-12-18T05:48:18.190Z,36.57
2022-12-18T05:50:46.743Z,35.20
2022-12-18T05:53:14.788Z,38.38
2022-12-18T05:55:42.730Z,30.90
2022-12-18T06:00:39.067Z,30.10
2022-12-18T06:03:05.682Z,37.58
2022-12-18T06:05:39.818Z,36.10
2022-12-18T06:08:06.682Z,38.92
2022-12-18T06:10:33.414Z,36.67
2022-12-18T06:13:00.108Z,41.05
2022-12-18T06:15:26.728Z,31.40
2022-12-18T06:17:53.237Z,26.77
2022-12-18T06:20:19.954Z,35.25
2022-12-18T06:22:46.444Z,35.80
2022-12-18T06:25:12.991Z,38.40
2022-12-18T06:27:39.669Z,39.90
2022-12-18T06:30:07.167Z,30.63
2022-12-18T06:32:33.729Z,32.50
2022-12-18T06:35:00.180Z,38.75
2022-12-18T06:37:26.757Z,34.08
2022-12-18T06:39:54.338Z,39.38
2022-12-18T06:42:20.824Z,30.98
2022-12-18T06:44:47.331Z,31.90
2022-12-18T06:47:13.882Z,31.25
2022-12-18T06:49:40.635Z,36.00
2022-12-18T06:52:07.290Z,35.20
2022-12-18T06:54:33.769Z,34.63
2022-12-18T06:57:00.244Z,33.70
2022-12-18T06:59:26.757Z,28.75
2022-12-18T07:01:54.691Z,35.38
2022-12-18T07:04:21.346Z,33.90
2022-12-18T07:06:50.868Z,35.88
2022-12-18T07:09:17.349Z,30.95
2022-12-18T07:11:43.820Z,35.35
2022-12-18T07:14:10.405Z,33.42
2022-12-18T07:16:37.003Z,24.17
2022-12-18T07:19:03.620Z,26.50
2022-12-18T07:21:30.200Z,33.75
2022-12-18T07:23:57.209Z,47.72
2022-12-18T07:26:24.074Z,37.77
2022-12-18T07:28:50.957Z,31.10
2022-12-18T07:31:21.541Z,32.10
2022-12-18T07:33:49.096Z,35.65
2022-12-18T07:36:16.049Z,31.50
2022-12-18T07:38:42.665Z,33.13
2022-12-18T07:41:13.834Z,35.42
2022-12-18T07:43:42.040Z,33.42
2022-12-18T07:46:09.911Z,38.55
2022-12-18T07:48:36.544Z,29.27
2022-12-18T07:51:05.667Z,32.22
2022-12-18T07:53:33.343Z,37.88
2022-12-18T07:56:26.043Z,31.67
2022-12-18T07:58:48.735Z,40.20
2022-12-18T08:01:15.666Z,32.38
2022-12-18T08:03:42.861Z,37.38
2022-12-18T08:06:10.665Z,31.92
2022-12-18T08:08:37.385Z,36.92
2022-12-18T08:11:07.240Z,35.00
2022-12-18T08:13:33.721Z,29.20
2022-12-18T08:16:08.081Z,25.83
2022-12-18T08:18:36.356Z,30.35
2022-12-18T08:21:13.879Z,31.67
2022-12-18T08:23:42.959Z,36.33
2022-12-18T08:26:10.995Z,30.05
2022-12-18T08:28:37.621Z,27.30
2022-12-18T08:31:05.192Z,29.05
2022-12-18T08:33:32.100Z,28.33
2022-12-18T08:36:02.506Z,32.55
2022-12-18T08:38:29.325Z,32.45
2022-12-18T08:41:03.819Z,27.20
2022-12-18T08:43:30.789Z,32.83
2022-12-18T08:45:57.832Z,27.92
2022-12-18T08:48:24.459Z,28.30
2022-12-18T08:50:58.137Z,35.05
2022-12-18T08:53:30.346Z,33.38
2022-12-18T08:56:03.383Z,30.17
2022-12-18T08:58:30.419Z,26.40
2022-12-18T09:01:09.359Z,27.33
2022-12-18T09:03:36.574Z,29.45
2022-12-18T09:06:03.421Z,22.77
2022-12-18T09:08:30.096Z,30.48
2022-12-18T09:10:56.796Z,31.55
2022-12-18T09:13:23.660Z,29.83
2022-12-18T09:15:52.732Z,27.48
2022-12-18T09:18:21.012Z,23.58
2022-12-18T09:20:47.889Z,29.48
2022-12-18T09:23:14.636Z,25.83
2022-12-18T09:25:41.230Z,26.42
2022-12-18T09:28:12.778Z,28.75
2022-12-18T09:30:41.148Z,31.95
2022-12-18T09:33:07.750Z,23.98
2022-12-18T09:35:41.640Z,29.67
2022-12-18T09:38:09.836Z,31.55
2022-12-18T09:40:43.090Z,33.35
2022-12-18T09:43:15.980Z,23.30
2022-12-18T09:45:47.136Z,29.60
2022-12-18T09:48:27.437Z,26.30
2022-12-18T09:50:59.177Z,32.00
2022-12-18T09:53:31.577Z,27.42
2022-12-18T09:55:58.591Z,26.92
2022-12-18T09:58:35.940Z,26.10
2022-12-18T10:01:02.697Z,27.30
2022-12-18T10:03:29.262Z,25.98
2022-12-18T10:06:02.669Z,27.45
2022-12-18T10:08:39.089Z,22.33
2022-12-18T10:11:43.738Z,28.75
2022-12-18T10:14:37.408Z,28.15
2022-12-18T10:17:33.444Z,30.30
2022-12-18T10:20:06.225Z,29.15
2022-12-18T10:22:54.104Z,33.10
2022-12-18T10:25:34.115Z,29.45
2022-12-18T10:28:11.445Z,32.13
2022-12-18T10:30:40.494Z,26.15
2022-12-18T10:33:10.453Z,28.48
2022-12-18T10:35:37.345Z,24.88
2022-12-18T10:38:06.884Z,25.02
2022-12-18T10:40:48.030Z,31.98
2022-12-18T10:43:15.932Z,33.58
2022-12-18T10:45:44.485Z,27.90
2022-12-18T10:48:22.729Z,33.00
2022-12-18T10:53:38.559Z,24.27
2022-12-18T10:56:07.379Z,31.60
2022-12-18T10:58:39.113Z,31.10
2022-12-18T11:01:17.498Z,26.27
2022-12-18T11:04:01.624Z,24.48
2022-12-18T11:06:29.771Z,26.77
2022-12-18T11:09:18.834Z,29.42
2022-12-18T11:11:50.933Z,30.35
2022-12-18T11:14:26.678Z,27.42
2022-12-18T11:17:24.316Z,26.67
2022-12-18T11:19:42.553Z,27.55
2022-12-18T11:22:25.841Z,28.17
2022-12-18T11:28:03.278Z,21.92
2022-12-18T11:30:37.543Z,20.33
2022-12-18T11:33:06.581Z,27.10
2022-12-18T11:35:42.001Z,26.83
2022-12-18T11:38:33.693Z,31.42
2022-12-18T11:41:02.924Z,35.70
2022-12-18T11:43:42.898Z,25.23
2022-12-18T11:46:19.944Z,29.33
2022-12-18T11:49:14.016Z,23.15
2022-12-18T11:51:50.958Z,26.27
2022-12-18T11:54:18.503Z,24.73
2022-12-18T11:57:15.366Z,25.83
2022-12-18T11:59:41.874Z,29.13
2022-12-18T12:02:34.634Z,25.60
2022-12-18T12:05:04.079Z,31.13
2022-12-18T12:07:42.649Z,27.88
2022-12-18T12:10:14.946Z,27.75
2022-12-18T12:12:58.514Z,31.20
2022-12-18T12:16:01.096Z,28.20
2022-12-18T12:18:45.880Z,28.92
2022-12-18T12:21:26.751Z,22.73
2022-12-18T12:24:10.509Z,29.35
2022-12-18T12:26:45.053Z,34.42
2022-12-18T12:29:31.652Z,24.13
2022-12-18T12:32:23.624Z,23.48
2022-12-18T12:35:02.718Z,23.75
2022-12-18T12:37:43.036Z,27.95
2022-12-18T12:40:49.768Z,23.88
2022-12-18T12:43:13.269Z,24.80
2022-12-18T12:45:47.562Z,25.48
2022-12-18T12:48:22.529Z,33.25
2022-12-18T12:50:50.155Z,26.27
2022-12-18T12:53:27.715Z,28.25
2022-12-18T12:55:55.264Z,27.53
2022-12-18T12:58:33.870Z,28.50
2022-12-18T13:01:33.563Z,24.30
2022-12-18T13:04:26.671Z,30.35
2022-12-18T13:07:03.055Z,29.40
2022-12-18T13:09:34.922Z,26.70
2022-12-18T13:12:11.975Z,26.15
2022-12-18T13:14:40.791Z,25.85
2022-12-18T13:17:24.967Z,31.33
2022-12-18T13:19:53.473Z,37.58
2022-12-18T13:22:37.262Z,27.38
2022-12-18T13:25:24.722Z,35.22
2022-12-18T13:28:06.664Z,30.63
2022-12-18T13:30:33.198Z,27.50
2022-12-18T13:33:22.984Z,31.45
2022-12-18T13:35:49.505Z,33.92
2022-12-18T13:38:41.084Z,26.63
2022-12-18T13:41:16.443Z,32.35
2022-12-18T13:43:52.380Z,30.08
2022-12-18T13:46:42.965Z,29.92
2022-12-18T13:49:15.658Z,28.67
2022-12-18T13:51:45.006Z,33.92
2022-12-18T13:54:18.893Z,30.23
2022-12-18T13:56:47.544Z,27.10
2022-12-18T13:59:25.325Z,35.40
2022-12-18T14:01:59.516Z,30.42
2022-12-18T14:04:31.339Z,30.88
2022-12-18T14:07:18.013Z,29.95
2022-12-18T14:09:58.129Z,35.33
2022-12-18T14:12:32.079Z,38.83
2022-12-18T14:15:01.279Z,26.63
2022-12-18T14:17:27.837Z,38.03
2022-12-18T14:19:55.034Z,40.85
2022-12-18T14:22:26.638Z,33.97
2022-12-18T14:25:21.231Z,31.00
2022-12-18T14:27:51.994Z,31.20
2022-12-18T14:30:24.852Z,28.20
2022-12-18T14:33:11.537Z,36.40
2022-12-18T14:35:52.816Z,25.88
2022-12-18T14:38:25.645Z,31.95
2022-12-18T14:41:16.841Z,24.40
2022-12-18T14:43:45.540Z,32.45
2022-12-18T14:46:35.448Z,35.20
2022-12-18T14:49:20.444Z,30.25
2022-12-18T14:51:55.893Z,39.13
2022-12-18T14:54:24.075Z,27.27
2022-12-18T14:56:57.335Z,27.13
2022-12-18T14:59:26.156Z,27.90
2022-12-18T15:02:17.048Z,32.28
2022-12-18T15:04:44.503Z,28.92
2022-12-18T15:07:20.113Z,26.83
2022-12-18T15:10:08.112Z,28.77
2022-12-18T15:12:39.764Z,31.55
2022-12-18T15:15:26.575Z,27.08
2022-12-18T15:18:00.995Z,25.77
2022-12-18T15:20:32.388Z,31.05
2022-12-18T15:22:59.078Z,21.58
2022-12-18T15:25:37.384Z,30.05
2022-12-18T15:28:05.146Z,27.60
2022-12-18T15:30:31.619Z,25.38
2022-12-18T15:33:18.587Z,32.72
2022-12-18T15:35:47.102Z,33.35
2022-12-18T15:38:13.801Z,24.10
2022-12-18T15:40:40.439Z,27.98
2022-12-18T15:43:10.063Z,28.80
2022-12-18T15:45:36.540Z,23.95
2022-12-18T15:48:03.199Z,28.83
2022-12-18T15:50:29.872Z,31.45
2022-12-18T15:52:57.561Z,28.00
2022-12-18T15:55:25.253Z,24.70
2022-12-18T15:57:51.814Z,26.75
2022-12-18T16:00:18.758Z,35.05
2022-12-18T16:02:45.756Z,29.38
2022-12-18T16:05:17.208Z,30.80
2022-12-18T16:07:44.810Z,34.38
2022-12-18T16:10:12.225Z,32.17
2022-12-18T16:12:39.149Z,33.20
2022-12-18T16:15:06.705Z,30.27
2022-12-18T16:17:34.278Z,32.30
2022-12-18T16:20:00.889Z,31.50
2022-12-18T16:22:29.732Z,29.63
2022-12-18T16:24:57.410Z,31.42
2022-12-18T16:27:24.847Z,38.53
2022-12-18T16:29:51.608Z,35.80
2022-12-18T16:32:20.279Z,34.63
2022-12-18T16:34:47.392Z,29.48
2022-12-18T16:37:15.142Z,36.57
2022-12-18T16:39:42.247Z,25.80
2022-12-18T16:42:16.693Z,41.25
2022-12-18T16:44:43.592Z,33.78
2022-12-18T16:47:11.387Z,35.85
2022-12-18T16:49:41.411Z,35.45
2022-12-18T16:52:08.367Z,34.38
2022-12-18T16:54:34.867Z,35.95
2022-12-18T16:57:01.421Z,35.35
2022-12-18T16:59:28.120Z,40.20
2022-12-18T17:01:55.317Z,42.45
2022-12-18T17:04:21.843Z,38.17
2022-12-18T17:06:48.422Z,36.22
2022-12-18T17:09:15.802Z,38.65
2022-12-18T17:11:45.004Z,41.60
2022-12-18T17:14:15.749Z,36.67
2022-12-18T17:16:42.261Z,45.88
2022-12-18T17:19:13.746Z,39.35
2022-12-18T17:21:44.465Z,36.80
2022-12-18T17:24:10.941Z,36.38
2022-12-18T17:26:37.630Z,43.58
2022-12-18T17:29:04.433Z,35.88
2022-12-18T17:31:31.383Z,35.40
2022-12-18T17:33:58.671Z,40.50
2022-12-18T17:36:26.267Z,34.73
2022-12-18T17:38:56.090Z,49.65
2022-12-18T17:41:23.628Z,40.95
2022-12-18T17:43:57.870Z,38.30
2022-12-18T17:46:25.452Z,35.78
2022-12-18T17:48:54.860Z,33.97
2022-12-18T17:51:21.656Z,43.88
2022-12-18T17:53:48.294Z,45.45
2022-12-18T17:56:16.924Z,48.45
2022-12-18T17:58:44.092Z,37.55
2022-12-18T18:01:23.321Z,34.50
2022-12-18T18:03:52.880Z,44.75
2022-12-18T18:06:20.606Z,46.38
2022-12-18T18:08:47.418Z,37.95
2022-12-18T18:11:18.079Z,44.80
2022-12-18T18:13:47.206Z,41.00
2022-12-18T18:16:13.968Z,36.28
2022-12-18T18:18:40.514Z,37.03
2022-12-18T18:21:10.023Z,41.67
2022-12-18T18:23:37.321Z,39.72
2022-12-18T18:26:08.332Z,43.25
2022-12-18T18:28:36.276Z,48.05
2022-12-18T18:33:33.381Z,41.55
2022-12-18T18:35:59.934Z,44.03
2022-12-18T18:38:26.878Z,44.15
2022-12-18T18:41:03.854Z,42.38
2022-12-18T18:43:31.113Z,41.75
2022-12-18T18:45:58.709Z,43.92
2022-12-18T18:48:26.544Z,44.33
2022-12-18T18:51:00.790Z,39.70
2022-12-18T18:53:27.761Z,37.65
2022-12-18T18:56:34.496Z,38.73
2022-12-18T18:58:44.559Z,41.60
2022-12-18T19:01:17.507Z,49.60
2022-12-18T19:03:45.096Z,39.75
2022-12-18T19:06:16.264Z,43.08
2022-12-18T19:08:43.813Z,43.72
2022-12-18T19:13:37.953Z,34.90
2022-12-18T19:16:09.065Z,33.58
2022-12-18T19:18:37.020Z,28.85
2022-12-18T19:21:06.523Z,46.15
2022-12-18T19:23:34.623Z,35.53
2022-12-18T19:26:27.071Z,37.33
2022-12-18T19:28:50.010Z,45.08
2022-12-18T19:31:24.374Z,39.67
2022-12-18T19:33:52.114Z,34.30
2022-12-18T19:36:21.436Z,36.00
2022-12-18T19:38:50.280Z,27.88
2022-12-18T19:41:18.035Z,33.72
2022-12-18T19:43:45.903Z,34.35
2022-12-18T19:46:18.295Z,38.42
2022-12-18T19:48:45.464Z,35.88
2022-12-18T19:51:16.343Z,34.90
2022-12-18T19:53:42.997Z,36.00
2022-12-18T19:56:15.813Z,39.42
2022-12-18T19:58:43.417Z,31.20
2022-12-18T20:01:10.583Z,35.95
2022-12-18T20:03:39.087Z,32.38
2022-12-18T20:06:18.894Z,41.72
2022-12-18T20:08:46.011Z,30.80
2022-12-18T20:11:12.815Z,38.63
2022-12-18T20:13:39.637Z,41.33
2022-12-18T20:16:06.627Z,30.48
2022-12-18T20:18:33.587Z,33.85
2022-12-18T20:21:00.145Z,39.70
2022-12-18T20:25:55.381Z,28.10
2022-12-18T20:28:23.610Z,31.83
2022-12-18T20:30:50.677Z,29.45
2022-12-18T20:33:17.430Z,34.30
2022-12-18T20:35:43.976Z,39.33
2022-12-18T20:38:10.562Z,39.08
2022-12-18T20:40:41.428Z,30.23
2022-12-18T20:43:12.433Z,36.65
2022-12-18T20:45:42.046Z,34.70
2022-12-18T20:48:10.446Z,38.65
2022-12-18T20:50:37.017Z,30.40
2022-12-18T20:53:04.002Z,38.60
2022-12-18T20:55:30.497Z,33.57
2022-12-18T20:57:57.880Z,43.67
2022-12-18T21:00:24.368Z,41.67
2022-12-18T21:02:51.012Z,45.38
2022-12-18T21:05:17.640Z,43.42
2022-12-18T21:07:44.218Z,34.92
2022-12-18T21:10:10.802Z,37.63
2022-12-18T21:12:42.682Z,34.30
2022-12-18T21:15:28.534Z,37.30
2022-12-18T21:17:55.499Z,43.05
2022-12-18T21:20:22.057Z,42.80
2022-12-18T21:22:48.548Z,42.63
2022-12-18T21:25:15.026Z,35.53
2022-12-18T21:27:41.596Z,46.10
2022-12-18T21:30:08.626Z,36.35
2022-12-18T21:32:35.095Z,37.03
2022-12-18T21:35:01.713Z,40.50
2022-12-18T21:37:28.180Z,45.00
2022-12-18T21:39:54.765Z,45.33
2022-12-18T21:42:21.261Z,37.78
2022-12-18T21:44:48.427Z,44.03
2022-12-18T21:47:21.516Z,43.05
2022-12-18T21:49:50.772Z,36.00
2022-12-18T21:52:17.323Z,38.05
2022-12-18T21:54:43.888Z,35.85
2022-12-18T21:57:10.792Z,38.55
2022-12-18T21:59:40.150Z,38.95
2022-12-18T22:02:25.036Z,36.97
2022-12-18T22:04:51.725Z,33.45
2022-12-18T22:07:18.605Z,36.47
2022-12-18T22:09:45.177Z,34.35
2022-12-18T22:12:13.628Z,28.55
2022-12-18T22:14:40.591Z,34.67
2022-12-18T22:17:07.086Z,30.67
2022-12-18T22:22:09.332Z,29.45
2022-12-18T22:24:35.848Z,35.47
2022-12-18T22:27:06.433Z,28.88
2022-12-18T22:29:32.945Z,30.25
2022-12-18T22:34:27.337Z,38.08
2022-12-18T22:36:54.291Z,41.72
2022-12-18T22:39:26.137Z,34.50
2022-12-18T22:41:55.775Z,37.85
2022-12-18T22:44:22.627Z,38.47
2022-12-18T22:47:03.516Z,36.78
2022-12-18T22:49:32.388Z,32.80
2022-12-18T22:52:00.466Z,36.72
2022-12-18T22:54:27.110Z,33.72
2022-12-18T22:56:53.557Z,31.92
2022-12-18T22:59:23.030Z,39.67
2022-12-18T23:01:50.845Z,39.08
2022-12-18T23:04:18.189Z,36.15
2022-12-18T23:06:46.496Z,41.13
2022-12-18T23:09:16.337Z,43.60
2022-12-18T23:11:42.985Z,40.85
2022-12-18T23:14:09.564Z,31.85
2022-12-18T23:16:36.115Z,35.10
2022-12-18T23:19:02.741Z,44.75
2022-12-18T23:21:29.590Z,39.08
2022-12-18T23:26:25.008Z,42.25
2022-12-18T23:31:24.818Z,35.67
2022-12-18T23:33:52.159Z,38.25
2022-12-18T23:36:20.036Z,30.10
2022-12-18T23:38:51.468Z,40.08
2022-12-18T23:41:19.862Z,40.90
2022-12-18T23:43:46.601Z,44.63
2022-12-18T23:48:48.927Z,39.20
2022-12-18T23:51:16.854Z,31.75
2022-12-18T23:56:12.388Z,39.35
2022-12-18T23:58:39.432Z,42.25
